Time,TemperatureF,DewpointF,PressureIn,WindDirection,WindDirectionDegrees,WindSpeedMPH,WindSpeedGustMPH,Humidity,HourlyPrecipIn,Conditions,Clouds,dailyrainin,SoftwareType,DateUTC
2013-11-26 00:01:00,30.2,16.3,29.22,NNW,338,6.0,11.0,56,0.00,,,0.00,meteohub,2013-11-26 06:01:00,
2013-11-26 00:06:00,30.2,16.3,29.22,WNW,292,9.0,9.0,56,0.00,,,0.00,meteohub,2013-11-26 06:06:00,
2013-11-26 00:11:00,30.2,16.3,29.22,NNW,338,6.0,9.0,56,0.00,,,0.00,meteohub,2013-11-26 06:11:00,
2013-11-26 00:16:00,30.0,16.2,29.19,NNW,338,13.0,13.0,56,0.00,,,0.00,meteohub,2013-11-26 06:16:00,
2013-11-26 00:21:00,30.0,16.2,29.19,South,180,5.0,15.0,56,0.00,,,0.00,meteohub,2013-11-26 06:21:00,
2013-11-26 00:27:00,29.8,16.2,29.19,NW,315,3.0,15.0,56,0.00,,,0.00,meteohub,2013-11-26 06:27:00,
2013-11-26 00:32:00,29.7,15.4,29.22,West,270,13.0,15.0,55,0.00,,,0.00,meteohub,2013-11-26 06:32:00,
2013-11-26 00:37:00,29.5,15.3,29.22,NW,315,8.0,15.0,55,0.00,,,0.00,meteohub,2013-11-26 06:37:00,
2013-11-26 00:42:00,29.5,15.8,29.22,North,0,6.0,15.0,56,0.00,,,0.00,meteohub,2013-11-26 06:42:00,
2013-11-26 00:47:00,29.3,15.6,29.19,North,0,11.0,13.0,56,0.00,,,0.00,meteohub,2013-11-26 06:47:00,
2013-11-26 00:52:00,29.3,15.6,29.19,NNE,22,7.0,11.0,56,0.00,,,0.00,meteohub,2013-11-26 06:52:00,
2013-11-26 00:57:00,29.1,15.4,29.19,NW,315,8.0,11.0,56,0.00,,,0.00,meteohub,2013-11-26 06:57:00,
2013-11-26 01:02:00,29.1,15.4,29.22,NNW,338,9.0,13.0,56,0.00,,,0.00,meteohub,2013-11-26 07:02:00,
2013-11-26 01:07:00,29.1,15.4,29.22,NNW,338,5.0,13.0,56,0.00,,,0.00,meteohub,2013-11-26 07:07:00,
2013-11-26 01:12:00,28.9,15.3,29.22,NNW,338,6.0,13.0,56,0.00,,,0.00,meteohub,2013-11-26 07:12:00,
2013-11-26 01:17:00,28.9,15.3,29.22,NNW,338,6.0,13.0,56,0.00,,,0.00,meteohub,2013-11-26 07:17:00,
2013-11-26 01:22:00,28.9,15.3,29.22,NNW,338,11.0,13.0,56,0.00,,,0.00,meteohub,2013-11-26 07:22:00,
2013-11-26 01:27:00,28.9,14.9,29.22,NNE,22,4.0,12.0,55,0.00,,,0.00,meteohub,2013-11-26 07:27:00,
2013-11-26 01:32:00,28.9,14.9,29.22,NNW,338,9.0,12.0,55,0.00,,,0.00,meteohub,2013-11-26 07:32:00,
2013-11-26 01:37:00,28.8,14.7,29.22,NW,315,6.0,12.0,55,0.00,,,0.00,meteohub,2013-11-26 07:37:00,
2013-11-26 01:42:00,28.8,14.7,29.22,North,0,6.0,11.0,55,0.00,,,0.00,meteohub,2013-11-26 07:42:00,
2013-11-26 01:47:00,28.8,14.7,29.22,North,0,11.0,11.0,55,0.00,,,0.00,meteohub,2013-11-26 07:47:00,
2013-11-26 01:52:00,28.6,14.9,29.22,NNW,338,3.0,11.0,56,0.00,,,0.00,meteohub,2013-11-26 07:52:00,
2013-11-26 01:57:00,28.6,14.9,29.22,NNW,338,3.0,11.0,56,0.00,,,0.00,meteohub,2013-11-26 07:57:00,
2013-11-26 02:02:00,28.6,14.9,29.22,WNW,292,11.0,11.0,56,0.00,,,0.00,meteohub,2013-11-26 08:02:00,
2013-11-26 02:07:00,28.6,14.9,29.22,NNW,338,2.0,11.0,56,0.00,,,0.00,meteohub,2013-11-26 08:07:00,
2013-11-26 02:12:00,28.6,14.5,29.22,North,0,9.0,11.0,55,0.00,,,0.00,meteohub,2013-11-26 08:12:00,
2013-11-26 02:17:00,28.4,14.7,29.25,WNW,292,7.0,11.0,56,0.00,,,0.00,meteohub,2013-11-26 08:17:00,
2013-11-26 02:22:00,28.4,14.7,29.25,NNW,338,4.0,10.0,56,0.00,,,0.00,meteohub,2013-11-26 08:22:00,
2013-11-26 02:27:00,28.4,14.7,29.25,WNW,292,4.0,10.0,56,0.00,,,0.00,meteohub,2013-11-26 08:27:00,
2013-11-26 02:32:00,28.4,14.4,29.25,WNW,292,13.0,13.0,55,0.00,,,0.00,meteohub,2013-11-26 08:32:00,
2013-11-26 02:37:00,28.0,14.0,29.25,North,0,6.0,15.0,55,0.00,,,0.00,meteohub,2013-11-26 08:37:00,
2013-11-26 02:42:00,27.9,13.8,29.25,NW,315,4.0,19.0,55,0.00,,,0.00,meteohub,2013-11-26 08:42:00,
2013-11-26 02:47:00,27.7,13.3,29.25,NNW,338,8.0,19.0,54,0.00,,,0.00,meteohub,2013-11-26 08:47:00,
2013-11-26 02:52:00,27.3,12.9,29.25,West,270,5.0,12.0,54,0.00,,,0.00,meteohub,2013-11-26 08:52:00,
2013-11-26 02:57:00,27.1,12.4,29.25,WNW,292,11.0,12.0,53,0.00,,,0.00,meteohub,2013-11-26 08:57:00,
2013-11-26 03:02:00,26.8,12.0,29.25,WNW,292,11.0,14.0,53,0.00,,,0.00,meteohub,2013-11-26 09:02:00,
2013-11-26 03:07:00,26.6,11.8,29.25,WNW,292,3.0,18.0,53,0.00,,,0.00,meteohub,2013-11-26 09:07:00,
2013-11-26 03:12:00,26.6,11.8,29.25,West,270,8.0,18.0,53,0.00,,,0.00,meteohub,2013-11-26 09:12:00,
2013-11-26 03:17:00,26.4,11.1,29.25,WNW,292,8.0,13.0,52,0.00,,,0.00,meteohub,2013-11-26 09:17:00,
2013-11-26 03:22:00,26.2,11.1,29.25,NNW,338,12.0,13.0,52,0.00,,,0.00,meteohub,2013-11-26 09:22:00,
2013-11-26 03:27:00,26.1,10.9,29.25,West,270,3.0,12.0,52,0.00,,,0.00,meteohub,2013-11-26 09:27:00,
2013-11-26 03:32:00,26.1,10.9,29.22,NW,315,5.0,14.0,52,0.00,,,0.00,meteohub,2013-11-26 09:32:00,
2013-11-26 03:37:00,25.9,10.8,29.22,WNW,292,13.0,14.0,52,0.00,,,0.00,meteohub,2013-11-26 09:37:00,
2013-11-26 03:42:00,25.7,10.6,29.22,NNW,338,6.0,16.0,52,0.00,,,0.00,meteohub,2013-11-26 09:42:00,
2013-11-26 03:47:00,25.3,10.2,29.25,NNW,338,8.0,16.0,52,0.00,,,0.00,meteohub,2013-11-26 09:47:00,
2013-11-26 03:52:00,25.2,8.8,29.25,North,0,11.0,17.0,49,0.00,,,0.00,meteohub,2013-11-26 09:52:00,
2013-11-26 03:57:00,25.0,8.1,29.25,NNW,338,12.0,17.0,48,0.00,,,0.00,meteohub,2013-11-26 09:57:00,
2013-11-26 04:02:00,24.8,7.9,29.25,NNW,338,8.0,17.0,48,0.00,,,0.00,meteohub,2013-11-26 10:02:00,
2013-11-26 04:07:00,24.6,8.2,29.25,North,0,4.0,17.0,49,0.00,,,0.00,meteohub,2013-11-26 10:07:00,
2013-11-26 04:12:00,24.4,8.1,29.25,NNE,22,6.0,14.0,49,0.00,,,0.00,meteohub,2013-11-26 10:12:00,
2013-11-26 04:17:00,24.4,7.5,29.25,WNW,292,4.0,13.0,48,0.00,,,0.00,meteohub,2013-11-26 10:17:00,
2013-11-26 04:22:00,24.4,8.1,29.25,WNW,292,3.0,13.0,49,0.00,,,0.00,meteohub,2013-11-26 10:22:00,
2013-11-26 04:27:00,24.4,7.5,29.25,NW,315,5.0,15.0,48,0.00,,,0.00,meteohub,2013-11-26 10:27:00,
2013-11-26 04:32:00,24.4,8.1,29.25,NNW,338,7.0,15.0,49,0.00,,,0.00,meteohub,2013-11-26 10:32:00,
2013-11-26 04:37:00,24.4,8.1,29.25,NW,315,7.0,15.0,49,0.00,,,0.00,meteohub,2013-11-26 10:37:00,
2013-11-26 04:42:00,24.4,8.1,29.25,NW,315,6.0,10.0,49,0.00,,,0.00,meteohub,2013-11-26 10:42:00,
2013-11-26 04:47:00,24.3,7.9,29.25,WNW,292,5.0,12.0,49,0.00,,,0.00,meteohub,2013-11-26 10:47:00,
2013-11-26 04:52:00,24.3,7.9,29.25,West,270,6.0,13.0,49,0.00,,,0.00,meteohub,2013-11-26 10:52:00,
2013-11-26 04:57:00,24.3,7.9,29.25,ENE,68,7.0,15.0,49,0.00,,,0.00,meteohub,2013-11-26 10:57:00,
2013-11-26 05:02:00,24.1,7.7,29.28,NNW,338,12.0,16.0,49,0.00,,,0.00,meteohub,2013-11-26 11:02:00,
2013-11-26 05:07:00,24.1,7.7,29.28,NNE,22,6.0,16.0,49,0.00,,,0.00,meteohub,2013-11-26 11:07:00,
2013-11-26 05:12:00,23.9,7.5,29.28,WNW,292,15.0,16.0,49,0.00,,,0.00,meteohub,2013-11-26 11:12:00,
2013-11-26 05:17:00,23.9,8.1,29.28,NNW,338,8.0,15.0,50,0.00,,,0.00,meteohub,2013-11-26 11:17:00,
2013-11-26 05:22:00,23.5,7.7,29.28,WNW,292,6.0,17.0,50,0.00,,,0.00,meteohub,2013-11-26 11:22:00,
2013-11-26 05:27:00,23.2,7.3,29.28,NW,315,7.0,17.0,50,0.00,,,0.00,meteohub,2013-11-26 11:27:00,
2013-11-26 05:32:00,22.8,7.0,29.28,NNW,338,10.0,17.0,50,0.00,,,0.00,meteohub,2013-11-26 11:32:00,
2013-11-26 05:37:00,22.8,7.0,29.28,West,270,9.0,13.0,50,0.00,,,0.00,meteohub,2013-11-26 11:37:00,
2013-11-26 05:42:00,22.1,4.5,29.28,NW,315,17.0,17.0,46,0.00,,,0.00,meteohub,2013-11-26 11:42:00,
2013-11-26 05:47:00,21.9,4.3,29.28,NW,315,13.0,17.0,46,0.00,,,0.00,meteohub,2013-11-26 11:47:00,
2013-11-26 05:52:00,21.6,3.9,29.28,NNW,338,12.0,17.0,46,0.00,,,0.00,meteohub,2013-11-26 11:52:00,
2013-11-26 05:57:00,21.4,3.4,29.28,North,0,9.0,23.0,45,0.00,,,0.00,meteohub,2013-11-26 11:57:00,
2013-11-26 06:02:00,21.0,3.0,29.25,North,0,20.0,23.0,45,0.00,,,0.00,meteohub,2013-11-26 12:02:00,
2013-11-26 06:07:00,20.7,2.7,29.25,NNW,338,5.0,20.0,45,0.00,,,0.00,meteohub,2013-11-26 12:07:00,
2013-11-26 06:12:00,20.7,2.3,29.25,NW,315,6.0,20.0,44,0.00,,,0.00,meteohub,2013-11-26 12:12:00,
2013-11-26 06:17:00,20.3,1.9,29.28,North,0,8.0,20.0,44,0.00,,,0.00,meteohub,2013-11-26 12:17:00,
2013-11-26 06:22:00,20.3,1.9,29.28,NNE,22,6.0,16.0,44,0.00,,,0.00,meteohub,2013-11-26 12:22:00,
2013-11-26 06:27:00,20.1,1.8,29.28,NW,315,12.0,22.0,44,0.00,,,0.00,meteohub,2013-11-26 12:27:00,
2013-11-26 06:32:00,19.8,0.9,29.34,NNE,22,7.0,22.0,43,0.00,,,0.00,meteohub,2013-11-26 12:32:00,
2013-11-26 06:37:00,19.6,1.2,29.34,North,0,9.0,22.0,44,0.00,,,0.00,meteohub,2013-11-26 12:37:00,
2013-11-26 06:42:00,19.4,1.0,29.34,NNW,338,11.0,19.0,44,0.00,,,0.00,meteohub,2013-11-26 12:42:00,
2013-11-26 06:47:00,19.2,0.9,29.34,NNE,22,7.0,19.0,44,0.00,,,0.00,meteohub,2013-11-26 12:47:00,
2013-11-26 06:52:00,18.9,0.5,29.34,NNW,338,5.0,19.0,44,0.00,,,0.00,meteohub,2013-11-26 12:52:00,
2013-11-26 06:57:00,18.7,0.5,29.34,NNE,22,6.0,19.0,44,0.00,,,0.00,meteohub,2013-11-26 12:57:00,
2013-11-26 07:02:00,18.5,0.3,29.34,NNE,22,10.0,15.0,44,0.00,,,0.00,meteohub,2013-11-26 13:02:00,
2013-11-26 07:07:00,18.3,0.1,29.34,NW,315,16.0,16.0,44,0.00,,,0.00,meteohub,2013-11-26 13:07:00,
2013-11-26 07:12:00,18.1,0.0,29.34,NW,315,16.0,16.0,44,0.00,,,0.00,meteohub,2013-11-26 13:12:00,
2013-11-26 07:17:00,18.0,-0.2,29.34,NNE,22,4.0,16.0,44,0.00,,,0.00,meteohub,2013-11-26 13:17:00,
2013-11-26 07:22:00,18.0,-0.2,29.34,NNE,22,9.0,16.0,44,0.00,,,0.00,meteohub,2013-11-26 13:22:00,
2013-11-26 07:27:00,17.8,-0.4,29.34,North,0,4.0,17.0,44,0.00,,,0.00,meteohub,2013-11-26 13:27:00,
2013-11-26 07:32:00,17.6,-0.6,29.34,NNE,22,6.0,17.0,44,0.00,,,0.00,meteohub,2013-11-26 13:32:00,
2013-11-26 07:37:00,17.6,0.0,29.34,NNW,338,6.0,17.0,45,0.00,,,0.00,meteohub,2013-11-26 13:37:00,
2013-11-26 07:42:00,17.4,-0.2,29.34,North,0,4.0,14.0,45,0.00,,,0.00,meteohub,2013-11-26 13:42:00,
2013-11-26 07:47:00,17.4,-0.2,29.34,North,0,10.0,11.0,45,0.00,,,0.00,meteohub,2013-11-26 13:47:00,
2013-11-26 07:52:00,17.4,-0.2,29.34,NNE,22,5.0,11.0,45,0.00,,,0.00,meteohub,2013-11-26 13:52:00,
2013-11-26 07:57:00,17.4,-0.2,29.34,NNE,22,6.0,13.0,45,0.00,,,0.00,meteohub,2013-11-26 13:57:00,
2013-11-26 08:02:00,17.4,-0.2,29.36,NNW,338,8.0,13.0,45,0.00,,,0.00,meteohub,2013-11-26 14:02:00,
2013-11-26 08:07:00,17.4,0.1,29.36,NNE,22,8.0,13.0,46,0.00,,,0.00,meteohub,2013-11-26 14:07:00,
2013-11-26 08:12:00,17.4,0.1,29.36,NNE,22,6.0,15.0,46,0.00,,,0.00,meteohub,2013-11-26 14:12:00,
2013-11-26 08:17:00,17.6,0.3,29.36,NE,45,6.0,15.0,46,0.00,,,0.00,meteohub,2013-11-26 14:17:00,
2013-11-26 08:22:00,17.6,0.3,29.36,NNW,338,4.0,15.0,46,0.00,,,0.00,meteohub,2013-11-26 14:22:00,
2013-11-26 08:27:00,17.6,0.0,29.36,NW,315,11.0,17.0,45,0.00,,,0.00,meteohub,2013-11-26 14:27:00,
2013-11-26 08:32:00,17.8,0.1,29.36,NNW,338,7.0,20.0,45,0.00,,,0.00,meteohub,2013-11-26 14:32:00,
2013-11-26 08:37:00,18.1,0.3,29.36,NNW,338,7.0,20.0,45,0.00,,,0.00,meteohub,2013-11-26 14:37:00,
2013-11-26 08:42:00,18.1,0.3,29.36,NNW,338,13.0,20.0,45,0.00,,,0.00,meteohub,2013-11-26 14:42:00,
2013-11-26 08:47:00,18.9,1.0,29.36,North,0,6.0,13.0,45,0.00,,,0.00,meteohub,2013-11-26 14:47:00,
2013-11-26 08:52:00,19.2,1.4,29.36,NW,315,4.0,13.0,45,0.00,,,0.00,meteohub,2013-11-26 14:52:00,
2013-11-26 08:57:00,19.2,1.4,29.36,North,0,5.0,13.0,45,0.00,,,0.00,meteohub,2013-11-26 14:57:00,
2013-11-26 09:02:00,19.4,1.6,29.36,WNW,292,4.0,13.0,45,0.00,,,0.00,meteohub,2013-11-26 15:02:00,
2013-11-26 09:07:00,19.6,1.8,29.36,NW,315,13.0,13.0,45,0.00,,,0.00,meteohub,2013-11-26 15:07:00,
2013-11-26 09:12:00,19.6,1.8,29.36,WNW,292,6.0,15.0,45,0.00,,,0.00,meteohub,2013-11-26 15:12:00,
2013-11-26 09:17:00,19.6,1.8,29.39,NNE,22,4.0,15.0,45,0.00,,,0.00,meteohub,2013-11-26 15:17:00,
2013-11-26 09:22:00,19.2,1.9,29.39,WNW,292,9.0,13.0,46,0.00,,,0.00,meteohub,2013-11-26 15:22:00,
2013-11-26 09:27:00,19.6,1.8,29.39,NNE,22,10.0,13.0,45,0.00,,,0.00,meteohub,2013-11-26 15:27:00,
2013-11-26 09:32:00,20.3,2.8,29.39,North,0,4.0,13.0,46,0.00,,,0.00,meteohub,2013-11-26 15:32:00,
2013-11-26 09:37:00,20.5,2.5,29.39,NW,315,11.0,12.0,45,0.00,,,0.00,meteohub,2013-11-26 15:37:00,
2013-11-26 09:42:00,20.8,2.8,29.39,NNE,22,8.0,12.0,45,0.00,,,0.00,meteohub,2013-11-26 15:42:00,
2013-11-26 09:47:00,20.7,2.7,29.39,NNW,338,6.0,12.0,45,0.00,,,0.00,meteohub,2013-11-26 15:47:00,
2013-11-26 09:52:00,20.3,2.3,29.39,NW,315,4.0,12.0,45,0.00,,,0.00,meteohub,2013-11-26 15:52:00,
2013-11-26 09:57:00,19.9,2.1,29.39,North,0,5.0,12.0,45,0.00,,,0.00,meteohub,2013-11-26 15:57:00,
2013-11-26 10:02:00,19.9,2.1,29.36,NE,45,9.0,12.0,45,0.00,,,0.00,meteohub,2013-11-26 16:02:00,
2013-11-26 10:07:00,19.9,2.1,29.36,WNW,292,6.0,12.0,45,0.00,,,0.00,meteohub,2013-11-26 16:07:00,
2013-11-26 10:12:00,19.8,1.9,29.36,NW,315,4.0,15.0,45,0.00,,,0.00,meteohub,2013-11-26 16:12:00,
2013-11-26 10:17:00,19.6,1.8,29.36,NNE,22,7.0,15.0,45,0.00,,,0.00,meteohub,2013-11-26 16:17:00,
2013-11-26 10:22:00,20.1,2.3,29.36,NNW,338,4.0,15.0,45,0.00,,,0.00,meteohub,2013-11-26 16:22:00,
2013-11-26 10:27:00,21.2,2.7,29.36,North,0,4.0,13.0,44,0.00,,,0.00,meteohub,2013-11-26 16:27:00,
2013-11-26 10:32:00,21.7,3.2,29.39,NNE,22,5.0,13.0,44,0.00,,,0.00,meteohub,2013-11-26 16:32:00,
2013-11-26 10:37:00,21.9,3.4,29.39,NNW,338,10.0,13.0,44,0.00,,,0.00,meteohub,2013-11-26 16:37:00,
2013-11-26 10:42:00,22.3,3.7,29.39,NNE,22,4.0,14.0,44,0.00,,,0.00,meteohub,2013-11-26 16:42:00,
2013-11-26 10:47:00,22.1,3.0,29.39,NNE,22,5.0,14.0,43,0.00,,,0.00,meteohub,2013-11-26 16:47:00,
2013-11-26 10:52:00,21.7,3.2,29.39,West,270,11.0,11.0,44,0.00,,,0.00,meteohub,2013-11-26 16:52:00,
2013-11-26 10:57:00,22.3,3.7,29.39,NE,45,10.0,13.0,44,0.00,,,0.00,meteohub,2013-11-26 16:57:00,
2013-11-26 11:02:00,21.9,2.8,29.39,North,0,7.0,13.0,43,0.00,,,0.00,meteohub,2013-11-26 17:02:00,
2013-11-26 11:07:00,21.9,2.8,29.39,WNW,292,6.0,13.0,43,0.00,,,0.00,meteohub,2013-11-26 17:07:00,
2013-11-26 11:12:00,21.4,2.5,29.39,NNW,338,4.0,13.0,43,0.00,,,0.00,meteohub,2013-11-26 17:12:00,
2013-11-26 11:17:00,21.4,2.8,29.39,WNW,292,4.0,14.0,44,0.00,,,0.00,meteohub,2013-11-26 17:17:00,
2013-11-26 11:22:00,22.1,3.6,29.39,NNE,22,5.0,14.0,44,0.00,,,0.00,meteohub,2013-11-26 17:22:00,
2013-11-26 11:27:00,21.6,2.5,29.39,WNW,292,13.0,13.0,43,0.00,,,0.00,meteohub,2013-11-26 17:27:00,
2013-11-26 11:32:00,21.6,2.5,29.39,North,0,7.0,15.0,43,0.00,,,0.00,meteohub,2013-11-26 17:32:00,
2013-11-26 11:37:00,21.4,2.5,29.39,NNE,22,3.0,15.0,43,0.00,,,0.00,meteohub,2013-11-26 17:37:00,
2013-11-26 11:42:00,22.1,3.0,29.39,NNW,338,9.0,15.0,43,0.00,,,0.00,meteohub,2013-11-26 17:42:00,
2013-11-26 11:47:00,21.9,2.8,29.39,NNE,22,6.0,12.0,43,0.00,,,0.00,meteohub,2013-11-26 17:47:00,
2013-11-26 11:52:00,21.9,2.8,29.39,North,0,6.0,12.0,43,0.00,,,0.00,meteohub,2013-11-26 17:52:00,
2013-11-26 11:57:00,21.0,2.1,29.39,NNW,338,12.0,13.0,43,0.00,,,0.00,meteohub,2013-11-26 17:57:00,
2013-11-26 12:02:00,21.4,2.5,29.39,WNW,292,10.0,15.0,43,0.00,,,0.00,meteohub,2013-11-26 18:02:00,
2013-11-26 12:07:00,21.0,2.1,29.39,NNE,22,3.0,15.0,43,0.00,,,0.00,meteohub,2013-11-26 18:07:00,
2013-11-26 12:12:00,21.6,2.5,29.39,East,90,5.0,15.0,43,0.00,,,0.00,meteohub,2013-11-26 18:12:00,
2013-11-26 12:17:00,21.7,2.7,29.39,NNE,22,6.0,13.0,43,0.00,,,0.00,meteohub,2013-11-26 18:17:00,
2013-11-26 12:22:00,21.9,2.8,29.39,NNW,338,12.0,12.0,43,0.00,,,0.00,meteohub,2013-11-26 18:22:00,
2013-11-26 12:27:00,21.9,2.8,29.39,NW,315,13.0,13.0,43,0.00,,,0.00,meteohub,2013-11-26 18:27:00,
2013-11-26 12:32:00,21.7,2.7,29.39,WSW,248,8.0,13.0,43,0.00,,,0.00,meteohub,2013-11-26 18:32:00,
2013-11-26 12:37:00,21.9,2.8,29.39,WSW,248,11.0,14.0,43,0.00,,,0.00,meteohub,2013-11-26 18:37:00,
2013-11-26 12:42:00,21.6,2.5,29.39,North,0,13.0,14.0,43,0.00,,,0.00,meteohub,2013-11-26 18:42:00,
2013-11-26 12:47:00,21.9,2.8,29.39,NNW,338,9.0,17.0,43,0.00,,,0.00,meteohub,2013-11-26 18:47:00,
2013-11-26 12:52:00,21.9,2.8,29.39,NNE,22,8.0,17.0,43,0.00,,,0.00,meteohub,2013-11-26 18:52:00,
2013-11-26 12:57:00,21.6,2.5,29.39,NE,45,6.0,17.0,43,0.00,,,0.00,meteohub,2013-11-26 18:57:00,
2013-11-26 13:02:00,21.4,2.5,29.39,NE,45,5.0,11.0,43,0.00,,,0.00,meteohub,2013-11-26 19:02:00,
2013-11-26 13:07:00,22.1,3.0,29.39,NNW,338,7.0,11.0,43,0.00,,,0.00,meteohub,2013-11-26 19:07:00,
2013-11-26 13:12:00,22.8,3.7,29.39,NNE,22,6.0,15.0,43,0.00,,,0.00,meteohub,2013-11-26 19:12:00,
2013-11-26 13:17:00,22.6,3.6,29.39,NNE,22,6.0,15.0,43,0.00,,,0.00,meteohub,2013-11-26 19:17:00,
2013-11-26 13:22:00,23.4,4.3,29.39,East,90,6.0,15.0,43,0.00,,,0.00,meteohub,2013-11-26 19:22:00,
2013-11-26 13:27:00,23.0,3.9,29.39,NW,315,13.0,13.0,43,0.00,,,0.00,meteohub,2013-11-26 19:27:00,
2013-11-26 13:32:00,23.4,3.7,29.39,WNW,292,5.0,13.0,42,0.00,,,0.00,meteohub,2013-11-26 19:32:00,
2013-11-26 13:37:00,23.2,3.6,29.39,WNW,292,9.0,14.0,42,0.00,,,0.00,meteohub,2013-11-26 19:37:00,
2013-11-26 13:42:00,22.8,3.7,29.39,North,0,6.0,14.0,43,0.00,,,0.00,meteohub,2013-11-26 19:42:00,
2013-11-26 13:47:00,22.3,3.2,29.42,North,0,15.0,15.0,43,0.00,,,0.00,meteohub,2013-11-26 19:47:00,
2013-11-26 13:52:00,21.6,2.5,29.42,NE,45,8.0,15.0,43,0.00,,,0.00,meteohub,2013-11-26 19:52:00,
2013-11-26 13:57:00,22.6,3.6,29.42,NNW,338,4.0,15.0,43,0.00,,,0.00,meteohub,2013-11-26 19:57:00,
2013-11-26 14:02:00,23.2,3.6,29.39,NW,315,4.0,15.0,42,0.00,,,0.00,meteohub,2013-11-26 20:02:00,
2013-11-26 14:07:00,23.9,4.6,29.39,WNW,292,4.0,12.0,43,0.00,,,0.00,meteohub,2013-11-26 20:07:00,
2013-11-26 14:12:00,23.5,3.9,29.39,NNW,338,14.0,14.0,42,0.00,,,0.00,meteohub,2013-11-26 20:12:00,
2013-11-26 14:17:00,22.5,3.4,29.39,NNW,338,4.0,14.0,43,0.00,,,0.00,meteohub,2013-11-26 20:17:00,
2013-11-26 14:22:00,21.6,2.5,29.39,NNW,338,8.0,14.0,43,0.00,,,0.00,meteohub,2013-11-26 20:22:00,
2013-11-26 14:27:00,21.9,2.8,29.39,NNW,338,7.0,14.0,43,0.00,,,0.00,meteohub,2013-11-26 20:27:00,
2013-11-26 14:32:00,23.5,3.9,29.36,WNW,292,6.0,10.0,42,0.00,,,0.00,meteohub,2013-11-26 20:32:00,
2013-11-26 14:37:00,23.5,3.9,29.36,NNE,22,10.0,15.0,42,0.00,,,0.00,meteohub,2013-11-26 20:37:00,
2013-11-26 14:42:00,23.4,3.7,29.36,NNE,22,8.0,15.0,42,0.00,,,0.00,meteohub,2013-11-26 20:42:00,
2013-11-26 14:47:00,22.6,3.0,29.39,WNW,292,8.0,13.0,42,0.00,,,0.00,meteohub,2013-11-26 20:47:00,
2013-11-26 14:52:00,21.9,2.8,29.39,NNE,22,6.0,11.0,43,0.00,,,0.00,meteohub,2013-11-26 20:52:00,
2013-11-26 14:57:00,20.8,1.9,29.39,NNE,22,6.0,11.0,43,0.00,,,0.00,meteohub,2013-11-26 20:57:00,
2013-11-26 15:02:00,20.7,1.8,29.36,NNW,338,10.0,11.0,43,0.00,,,0.00,meteohub,2013-11-26 21:02:00,
2013-11-26 15:07:00,20.5,1.6,29.36,North,0,5.0,13.0,43,0.00,,,0.00,meteohub,2013-11-26 21:07:00,
2013-11-26 15:12:00,20.8,1.9,29.36,North,0,6.0,13.0,43,0.00,,,0.00,meteohub,2013-11-26 21:12:00,
2013-11-26 15:17:00,21.2,2.3,29.36,North,0,8.0,13.0,43,0.00,,,0.00,meteohub,2013-11-26 21:17:00,
2013-11-26 15:22:00,21.6,2.5,29.36,North,0,11.0,13.0,43,0.00,,,0.00,meteohub,2013-11-26 21:22:00,
2013-11-26 15:27:00,22.5,3.4,29.36,NNE,22,6.0,16.0,43,0.00,,,0.00,meteohub,2013-11-26 21:27:00,
2013-11-26 15:32:00,21.9,2.8,29.36,NNE,22,4.0,16.0,43,0.00,,,0.00,meteohub,2013-11-26 21:32:00,
2013-11-26 15:37:00,21.6,2.5,29.36,NNW,338,5.0,11.0,43,0.00,,,0.00,meteohub,2013-11-26 21:37:00,
2013-11-26 15:42:00,21.4,2.5,29.36,NW,315,4.0,12.0,43,0.00,,,0.00,meteohub,2013-11-26 21:42:00,
2013-11-26 15:47:00,21.4,2.5,29.39,North,0,7.0,12.0,43,0.00,,,0.00,meteohub,2013-11-26 21:47:00,
2013-11-26 15:52:00,20.7,1.8,29.39,NNE,22,5.0,12.0,43,0.00,,,0.00,meteohub,2013-11-26 21:52:00,
2013-11-26 15:57:00,20.5,1.6,29.39,NNW,338,11.0,11.0,43,0.00,,,0.00,meteohub,2013-11-26 21:57:00,
2013-11-26 16:02:00,20.5,1.6,29.42,NW,315,9.0,11.0,43,0.00,,,0.00,meteohub,2013-11-26 22:02:00,
2013-11-26 16:07:00,20.7,1.8,29.42,NNE,22,3.0,12.0,43,0.00,,,0.00,meteohub,2013-11-26 22:07:00,
2013-11-26 16:12:00,19.9,1.6,29.42,North,0,4.0,12.0,44,0.00,,,0.00,meteohub,2013-11-26 22:12:00,
2013-11-26 16:17:00,19.9,1.6,29.39,NNE,22,6.0,12.0,44,0.00,,,0.00,meteohub,2013-11-26 22:17:00,
2013-11-26 16:22:00,19.8,1.4,29.39,NE,45,5.0,11.0,44,0.00,,,0.00,meteohub,2013-11-26 22:22:00,
2013-11-26 16:27:00,19.8,1.4,29.39,WNW,292,3.0,11.0,44,0.00,,,0.00,meteohub,2013-11-26 22:27:00,
2013-11-26 16:32:00,19.8,1.4,29.42,NNW,338,9.0,10.0,44,0.00,,,0.00,meteohub,2013-11-26 22:32:00,
2013-11-26 16:37:00,19.8,1.4,29.42,NNE,22,5.0,9.0,44,0.00,,,0.00,meteohub,2013-11-26 22:37:00,
2013-11-26 16:42:00,19.6,1.2,29.42,WNW,292,5.0,11.0,44,0.00,,,0.00,meteohub,2013-11-26 22:42:00,
2013-11-26 16:47:00,19.4,1.0,29.45,SSE,158,5.0,11.0,44,0.00,,,0.00,meteohub,2013-11-26 22:47:00,
2013-11-26 16:52:00,19.2,1.4,29.45,North,0,2.0,11.0,45,0.00,,,0.00,meteohub,2013-11-26 22:52:00,
2013-11-26 16:57:00,19.0,1.2,29.45,NW,315,3.0,11.0,45,0.00,,,0.00,meteohub,2013-11-26 22:57:00,
2013-11-26 17:02:00,19.2,1.4,29.45,NNE,22,3.0,13.0,45,0.00,,,0.00,meteohub,2013-11-26 23:02:00,
2013-11-26 17:07:00,19.2,1.4,29.45,NNE,22,4.0,13.0,45,0.00,,,0.00,meteohub,2013-11-26 23:07:00,
2013-11-26 17:12:00,19.2,1.4,29.45,NE,45,8.0,13.0,45,0.00,,,0.00,meteohub,2013-11-26 23:12:00,
2013-11-26 17:17:00,19.2,1.4,29.45,NW,315,6.0,12.0,45,0.00,,,0.00,meteohub,2013-11-26 23:17:00,
2013-11-26 17:22:00,19.2,1.4,29.45,NW,315,6.0,12.0,45,0.00,,,0.00,meteohub,2013-11-26 23:22:00,
2013-11-26 17:27:00,19.2,1.4,29.45,NNE,22,5.0,12.0,45,0.00,,,0.00,meteohub,2013-11-26 23:27:00,
2013-11-26 17:32:00,19.2,1.4,29.45,NNE,22,6.0,15.0,45,0.00,,,0.00,meteohub,2013-11-26 23:32:00,
2013-11-26 17:37:00,19.2,1.4,29.45,NNE,22,6.0,15.0,45,0.00,,,0.00,meteohub,2013-11-26 23:37:00,
2013-11-26 17:42:00,19.2,1.4,29.45,NE,45,8.0,15.0,45,0.00,,,0.00,meteohub,2013-11-26 23:42:00,
2013-11-26 17:47:00,19.2,1.4,29.45,NNE,22,6.0,15.0,45,0.00,,,0.00,meteohub,2013-11-26 23:47:00,
2013-11-26 17:52:00,19.0,1.2,29.45,North,0,8.0,15.0,45,0.00,,,0.00,meteohub,2013-11-26 23:52:00,
2013-11-26 17:57:00,19.0,1.2,29.45,NNW,338,6.0,10.0,45,0.00,,,0.00,meteohub,2013-11-26 23:57:00,
2013-11-26 18:02:00,19.0,1.2,29.45,NNE,22,7.0,11.0,45,0.00,,,0.00,meteohub,2013-11-27 00:02:00,
2013-11-26 18:07:00,18.7,0.9,29.45,North,0,6.0,11.0,45,0.00,,,0.00,meteohub,2013-11-27 00:07:00,
2013-11-26 18:12:00,18.5,1.2,29.45,NNE,22,5.0,9.0,46,0.00,,,0.00,meteohub,2013-11-27 00:12:00,
2013-11-26 18:17:00,18.5,0.7,29.45,NNE,22,6.0,9.0,45,0.00,,,0.00,meteohub,2013-11-27 00:17:00,
2013-11-26 18:22:00,18.5,0.7,29.45,NNE,22,12.0,13.0,45,0.00,,,0.00,meteohub,2013-11-27 00:22:00,
2013-11-26 18:27:00,18.1,0.3,29.45,NNE,22,9.0,13.0,45,0.00,,,0.00,meteohub,2013-11-27 00:27:00,
2013-11-26 18:32:00,17.8,0.1,29.45,NNE,22,6.0,12.0,45,0.00,,,0.00,meteohub,2013-11-27 00:32:00,
2013-11-26 18:37:00,17.6,0.3,29.45,North,0,4.0,9.0,46,0.00,,,0.00,meteohub,2013-11-27 00:37:00,
2013-11-26 18:42:00,17.4,0.1,29.45,NNE,22,10.0,10.0,46,0.00,,,0.00,meteohub,2013-11-27 00:42:00,
2013-11-26 18:47:00,17.4,0.1,29.45,NNE,22,6.0,10.0,46,0.00,,,0.00,meteohub,2013-11-27 00:47:00,
2013-11-26 18:52:00,17.4,0.1,29.45,NNE,22,10.0,10.0,46,0.00,,,0.00,meteohub,2013-11-27 00:52:00,
2013-11-26 18:57:00,17.2,0.0,29.45,NNE,22,5.0,12.0,46,0.00,,,0.00,meteohub,2013-11-27 00:57:00,
2013-11-26 19:02:00,17.1,0.0,29.45,NE,45,6.0,12.0,46,0.00,,,0.00,meteohub,2013-11-27 01:02:00,
2013-11-26 19:07:00,17.1,0.0,29.45,NNE,22,6.0,12.0,46,0.00,,,0.00,meteohub,2013-11-27 01:07:00,
2013-11-26 19:12:00,17.1,0.0,29.45,NNE,22,6.0,10.0,46,0.00,,,0.00,meteohub,2013-11-27 01:12:00,
2013-11-26 19:17:00,16.9,0.1,29.45,North,0,4.0,10.0,47,0.00,,,0.00,meteohub,2013-11-27 01:17:00,
2013-11-26 19:22:00,16.9,0.1,29.45,NNE,22,9.0,10.0,47,0.00,,,0.00,meteohub,2013-11-27 01:22:00,
2013-11-26 19:27:00,16.9,0.1,29.45,NNE,22,6.0,9.0,47,0.00,,,0.00,meteohub,2013-11-27 01:27:00,
2013-11-26 19:32:00,17.1,0.3,29.48,NNW,338,7.0,9.0,47,0.00,,,0.00,meteohub,2013-11-27 01:32:00,
2013-11-26 19:37:00,16.9,0.1,29.48,NNE,22,7.0,9.0,47,0.00,,,0.00,meteohub,2013-11-27 01:37:00,
2013-11-26 19:42:00,16.9,0.1,29.48,NNE,22,8.0,9.0,47,0.00,,,0.00,meteohub,2013-11-27 01:42:00,
2013-11-26 19:47:00,16.9,0.1,29.48,NNE,22,6.0,9.0,47,0.00,,,0.00,meteohub,2013-11-27 01:47:00,
2013-11-26 19:52:00,16.9,0.1,29.48,North,0,8.0,9.0,47,0.00,,,0.00,meteohub,2013-11-27 01:52:00,
2013-11-26 19:57:00,16.7,0.0,29.48,North,0,4.0,10.0,47,0.00,,,0.00,meteohub,2013-11-27 01:57:00,
2013-11-26 20:02:00,16.7,0.0,29.48,NNW,338,8.0,10.0,47,0.00,,,0.00,meteohub,2013-11-27 02:02:00,
2013-11-26 20:07:00,16.5,-0.2,29.48,NNE,22,6.0,10.0,47,0.00,,,0.00,meteohub,2013-11-27 02:07:00,
2013-11-26 20:12:00,16.5,-0.2,29.48,NNE,22,8.0,10.0,47,0.00,,,0.00,meteohub,2013-11-27 02:12:00,
2013-11-26 20:17:00,16.5,-0.2,29.45,NNE,22,6.0,9.0,47,0.00,,,0.00,meteohub,2013-11-27 02:17:00,
2013-11-26 20:22:00,16.3,0.1,29.45,NNE,22,6.0,9.0,48,0.00,,,0.00,meteohub,2013-11-27 02:22:00,
2013-11-26 20:27:00,16.3,0.1,29.45,North,0,5.0,9.0,48,0.00,,,0.00,meteohub,2013-11-27 02:27:00,
2013-11-26 20:32:00,16.2,0.0,29.48,NNE,22,6.0,9.0,48,0.00,,,0.00,meteohub,2013-11-27 02:32:00,
2013-11-26 20:37:00,16.2,0.0,29.48,NNE,22,4.0,9.0,48,0.00,,,0.00,meteohub,2013-11-27 02:37:00,
2013-11-26 20:42:00,16.0,-0.2,29.48,NNE,22,8.0,9.0,48,0.00,,,0.00,meteohub,2013-11-27 02:42:00,
2013-11-26 20:47:00,16.2,0.0,29.48,NNE,22,8.0,8.0,48,0.00,,,0.00,meteohub,2013-11-27 02:47:00,
2013-11-26 20:52:00,16.0,-0.2,29.48,NNE,22,6.0,8.0,48,0.00,,,0.00,meteohub,2013-11-27 02:52:00,
2013-11-26 20:57:00,16.0,0.1,29.48,NE,45,9.0,9.0,49,0.00,,,0.00,meteohub,2013-11-27 02:57:00,
2013-11-26 21:02:00,15.8,0.1,29.48,NNE,22,4.0,10.0,49,0.00,,,0.00,meteohub,2013-11-27 03:02:00,
2013-11-26 21:07:00,15.8,0.1,29.48,NNE,22,4.0,10.0,49,0.00,,,0.00,meteohub,2013-11-27 03:07:00,
2013-11-26 21:12:00,15.6,0.3,29.48,NNE,22,3.0,10.0,50,0.00,,,0.00,meteohub,2013-11-27 03:12:00,
2013-11-26 21:17:00,15.4,0.1,29.48,NNE,22,6.0,7.0,50,0.00,,,0.00,meteohub,2013-11-27 03:17:00,
2013-11-26 21:22:00,15.4,0.1,29.48,NNE,22,6.0,7.0,50,0.00,,,0.00,meteohub,2013-11-27 03:22:00,
2013-11-26 21:27:00,15.4,0.1,29.48,NNE,22,4.0,10.0,50,0.00,,,0.00,meteohub,2013-11-27 03:27:00,
2013-11-26 21:32:00,15.4,0.5,29.48,NNE,22,4.0,10.0,51,0.00,,,0.00,meteohub,2013-11-27 03:32:00,
2013-11-26 21:37:00,15.3,0.3,29.48,NNE,22,5.0,10.0,51,0.00,,,0.00,meteohub,2013-11-27 03:37:00,
2013-11-26 21:42:00,15.3,0.3,29.48,NNE,22,4.0,8.0,51,0.00,,,0.00,meteohub,2013-11-27 03:42:00,
2013-11-26 21:47:00,15.1,0.3,29.48,NNE,22,5.0,8.0,51,0.00,,,0.00,meteohub,2013-11-27 03:47:00,
2013-11-26 21:52:00,14.9,0.1,29.48,NNE,22,4.0,8.0,51,0.00,,,0.00,meteohub,2013-11-27 03:52:00,
2013-11-26 21:57:00,14.9,0.5,29.48,NE,45,6.0,6.0,52,0.00,,,0.00,meteohub,2013-11-27 03:57:00,
2013-11-26 22:02:00,14.9,0.5,29.48,NNE,22,6.0,6.0,52,0.00,,,0.00,meteohub,2013-11-27 04:02:00,
2013-11-26 22:07:00,14.9,0.5,29.48,North,0,4.0,6.0,52,0.00,,,0.00,meteohub,2013-11-27 04:07:00,
2013-11-26 22:12:00,14.7,0.7,29.48,NNW,338,4.0,6.0,53,0.00,,,0.00,meteohub,2013-11-27 04:12:00,
2013-11-26 22:17:00,14.5,0.5,29.48,NNE,22,4.0,6.0,53,0.00,,,0.00,meteohub,2013-11-27 04:17:00,
2013-11-26 22:22:00,14.7,1.0,29.48,North,0,5.0,6.0,54,0.00,,,0.00,meteohub,2013-11-27 04:22:00,
2013-11-26 22:27:00,14.5,0.9,29.48,NNE,22,5.0,9.0,54,0.00,,,0.00,meteohub,2013-11-27 04:27:00,
2013-11-26 22:32:00,14.5,0.9,29.48,NNE,22,4.0,9.0,54,0.00,,,0.00,meteohub,2013-11-27 04:32:00,
2013-11-26 22:37:00,14.4,0.9,29.48,NNE,22,4.0,9.0,54,0.00,,,0.00,meteohub,2013-11-27 04:37:00,
2013-11-26 22:42:00,14.2,0.7,29.48,NNE,22,5.0,6.0,54,0.00,,,0.00,meteohub,2013-11-27 04:42:00,
2013-11-26 22:47:00,14.2,0.7,29.48,NNW,338,4.0,6.0,54,0.00,,,0.00,meteohub,2013-11-27 04:47:00,
2013-11-26 22:52:00,14.2,0.7,29.48,North,0,4.0,6.0,54,0.00,,,0.00,meteohub,2013-11-27 04:52:00,
2013-11-26 22:57:00,14.0,0.9,29.48,NNE,22,4.0,6.0,55,0.00,,,0.00,meteohub,2013-11-27 04:57:00,
2013-11-26 23:01:00,13.8,0.7,29.48,North,0,5.0,6.0,55,0.00,,,0.00,meteohub,2013-11-27 05:01:00,
2013-11-26 23:02:00,13.8,0.7,29.48,NNE,22,5.0,6.0,55,0.00,,,0.00,meteohub,2013-11-27 05:02:00,
2013-11-26 23:07:00,13.8,0.7,29.48,NNE,22,4.0,6.0,55,0.00,,,0.00,meteohub,2013-11-27 05:07:00,
2013-11-26 23:12:00,13.8,0.7,29.48,NNE,22,4.0,6.0,55,0.00,,,0.00,meteohub,2013-11-27 05:12:00,
2013-11-26 23:17:00,13.6,0.5,29.51,NNE,22,3.0,6.0,55,0.00,,,0.00,meteohub,2013-11-27 05:17:00,
2013-11-26 23:22:00,13.6,0.5,29.51,NNE,22,4.0,5.0,55,0.00,,,0.00,meteohub,2013-11-27 05:22:00,
2013-11-26 23:27:00,13.5,0.3,29.51,NNE,22,3.0,5.0,55,0.00,,,0.00,meteohub,2013-11-27 05:27:00,
2013-11-26 23:32:00,13.5,0.3,29.48,NNE,22,6.0,6.0,55,0.00,,,0.00,meteohub,2013-11-27 05:32:00,
2013-11-26 23:37:00,13.5,0.3,29.48,NNE,22,4.0,6.0,55,0.00,,,0.00,meteohub,2013-11-27 05:37:00,
2013-11-26 23:42:00,13.5,0.3,29.48,NNE,22,4.0,6.0,55,0.00,,,0.00,meteohub,2013-11-27 05:42:00,
2013-11-26 23:47:00,13.5,0.3,29.48,NNE,22,4.0,6.0,55,0.00,,,0.00,meteohub,2013-11-27 05:47:00,
2013-11-26 23:52:00,13.5,0.3,29.48,NNE,22,5.0,6.0,55,0.00,,,0.00,meteohub,2013-11-27 05:52:00,
2013-11-26 23:57:00,13.3,0.1,29.48,NNE,22,4.0,6.0,55,0.00,,,0.00,meteohub,2013-11-27 05:57:00,